sensor_id;sensor_type;location;lat;lon;timestamp;pressure;altitude;pressure_sealevel;temperature;humidity
17309;BME280;8772;42.804;23.426;2023-02-10T00:01:05;77079.16;;;-140.58;66.45
17309;BME280;8772;42.804;23.426;2023-02-10T00:03:33;77081.22;;;-140.58;66.51
17309;BME280;8772;42.804;23.426;2023-02-10T00:06:00;77068.91;;;-140.58;66.60
17309;BME280;8772;42.804;23.426;2023-02-10T00:08:28;77068.91;;;-140.58;66.40
17309;BME280;8772;42.804;23.426;2023-02-10T00:10:56;77081.22;;;-140.58;66.69
17309;BME280;8772;42.804;23.426;2023-02-10T00:13:23;77083.28;;;-140.58;67.32
17309;BME280;8772;42.804;23.426;2023-02-10T00:15:52;77116.13;;;-140.58;67.75
17309;BME280;8772;42.804;23.426;2023-02-10T00:18:19;77114.06;;;-140.58;68.68
17309;BME280;8772;42.804;23.426;2023-02-10T00:20:46;77185.94;;;-140.58;69.87
17309;BME280;8772;42.804;23.426;2023-02-10T00:23:13;77192.09;;;-140.58;70.44
17309;BME280;8772;42.804;23.426;2023-02-10T00:25:40;77190.06;;;-140.58;70.00
17309;BME280;8772;42.804;23.426;2023-02-10T00:28:07;77202.38;;;-140.58;70.16
17309;BME280;8772;42.804;23.426;2023-02-10T00:30:33;77185.94;;;-140.58;69.67
17309;BME280;8772;42.804;23.426;2023-02-10T00:33:02;77204.44;;;-140.58;70.77
17309;BME280;8772;42.804;23.426;2023-02-10T00:35:29;77204.44;;;-140.58;71.03
17309;BME280;8772;42.804;23.426;2023-02-10T00:37:57;77218.81;;;-140.58;70.84
17309;BME280;8772;42.804;23.426;2023-02-10T00:40:24;77210.59;;;-140.58;70.89
17309;BME280;8772;42.804;23.426;2023-02-10T00:42:50;77206.47;;;-140.58;71.73
17309;BME280;8772;42.804;23.426;2023-02-10T00:45:17;77177.72;;;-140.58;71.97
17309;BME280;8772;42.804;23.426;2023-02-10T00:47:44;77167.47;;;-140.58;71.51
17309;BME280;8772;42.804;23.426;2023-02-10T00:50:13;77173.63;;;-140.58;71.16
17309;BME280;8772;42.804;23.426;2023-02-10T00:52:40;77179.78;;;-140.58;70.82
17309;BME280;8772;42.804;23.426;2023-02-10T00:55:07;77196.22;;;-140.58;70.82
17309;BME280;8772;42.804;23.426;2023-02-10T00:57:34;77204.44;;;-140.58;70.59
17309;BME280;8772;42.804;23.426;2023-02-10T01:00:01;77218.81;;;-140.58;71.21
17309;BME280;8772;42.804;23.426;2023-02-10T01:02:28;77212.66;;;-140.58;71.50
17309;BME280;8772;42.804;23.426;2023-02-10T01:08:18;77196.22;;;-140.58;71.41
17309;BME280;8772;42.804;23.426;2023-02-10T01:10:45;77192.09;;;-140.58;71.33
17309;BME280;8772;42.804;23.426;2023-02-10T01:13:13;77224.97;;;-140.58;72.16
17309;BME280;8772;42.804;23.426;2023-02-10T01:15:41;77220.84;;;-140.58;73.00
17309;BME280;8772;42.804;23.426;2023-02-10T01:18:08;77210.59;;;-140.58;73.11
17309;BME280;8772;42.804;23.426;2023-02-10T01:20:38;77216.75;;;-140.58;73.64
17309;BME280;8772;42.804;23.426;2023-02-10T01:23:06;77249.59;;;-140.58;74.35
17309;BME280;8772;42.804;23.426;2023-02-10T01:25:34;77245.50;;;-140.58;75.33
17309;BME280;8772;42.804;23.426;2023-02-10T01:28:02;77249.59;;;-140.58;76.33
17309;BME280;8772;42.804;23.426;2023-02-10T01:30:29;77251.66;;;-140.58;76.98
17309;BME280;8772;42.804;23.426;2023-02-10T01:32:56;77261.94;;;-140.58;76.10
17309;BME280;8772;42.804;23.426;2023-02-10T01:35:23;77263.97;;;-140.58;76.26
17309;BME280;8772;42.804;23.426;2023-02-10T01:37:50;77259.88;;;-140.58;76.27
17309;BME280;8772;42.804;23.426;2023-02-10T01:40:17;77249.59;;;-140.58;76.56
17309;BME280;8772;42.804;23.426;2023-02-10T01:42:46;77261.94;;;-140.58;76.38
17309;BME280;8772;42.804;23.426;2023-02-10T01:45:16;77245.50;;;-140.58;75.90
17309;BME280;8772;42.804;23.426;2023-02-10T01:47:45;77249.59;;;-140.58;75.75
17309;BME280;8772;42.804;23.426;2023-02-10T01:50:13;77241.38;;;-140.58;75.19
17309;BME280;8772;42.804;23.426;2023-02-10T01:52:41;77237.28;;;-140.58;75.57
17309;BME280;8772;42.804;23.426;2023-02-10T01:55:10;77208.53;;;-140.58;76.03
17309;BME280;8772;42.804;23.426;2023-02-10T01:57:40;77188.00;;;-140.58;75.29
17309;BME280;8772;42.804;23.426;2023-02-10T02:00:12;77171.56;;;-140.58;74.57
17309;BME280;8772;42.804;23.426;2023-02-10T02:02:41;77157.19;;;-140.58;73.69
17309;BME280;8772;42.804;23.426;2023-02-10T02:05:19;77151.03;;;-140.58;72.91
17309;BME280;8772;42.804;23.426;2023-02-10T02:07:47;77142.81;;;-140.58;72.60
17309;BME280;8772;42.804;23.426;2023-02-10T02:10:15;77142.81;;;-140.58;72.01
17309;BME280;8772;42.804;23.426;2023-02-10T02:12:47;77138.72;;;-140.58;71.73
17309;BME280;8772;42.804;23.426;2023-02-10T02:15:26;77130.50;;;-140.58;71.33
17309;BME280;8772;42.804;23.426;2023-02-10T02:18:02;77130.50;;;-140.58;70.71
17309;BME280;8772;42.804;23.426;2023-02-10T02:23:46;77179.78;;;-140.58;70.92
17309;BME280;8772;42.804;23.426;2023-02-10T02:26:34;77159.25;;;-140.58;71.56
17309;BME280;8772;42.804;23.426;2023-02-10T02:29:20;77163.34;;;-140.58;71.57
17309;BME280;8772;42.804;23.426;2023-02-10T02:32:02;77185.94;;;-140.58;73.96
17309;BME280;8772;42.804;23.426;2023-02-10T02:34:37;77169.53;;;-140.58;73.67
17309;BME280;8772;42.804;23.426;2023-02-10T02:37:10;77192.09;;;-140.58;74.38
17309;BME280;8772;42.804;23.426;2023-02-10T02:39:40;77181.84;;;-140.58;74.29
17309;BME280;8772;42.804;23.426;2023-02-10T02:42:18;77179.78;;;-140.58;74.08
17309;BME280;8772;42.804;23.426;2023-02-10T02:44:47;77212.66;;;-140.58;74.76
17309;BME280;8772;42.804;23.426;2023-02-10T02:47:30;77200.31;;;-140.58;76.01
17309;BME280;8772;42.804;23.426;2023-02-10T02:50:10;77208.53;;;-140.58;75.98
17309;BME280;8772;42.804;23.426;2023-02-10T02:52:48;77208.53;;;-140.58;76.14
17309;BME280;8772;42.804;23.426;2023-02-10T02:55:26;77229.06;;;-140.58;76.75
17309;BME280;8772;42.804;23.426;2023-02-10T02:58:01;77210.59;;;-140.58;77.08
17309;BME280;8772;42.804;23.426;2023-02-10T03:00:31;77200.31;;;-140.58;76.31
17309;BME280;8772;42.804;23.426;2023-02-10T03:03:01;77200.31;;;-140.58;75.53
17309;BME280;8772;42.804;23.426;2023-02-10T03:05:31;77200.31;;;-140.58;75.24
17309;BME280;8772;42.804;23.426;2023-02-10T03:07:58;77210.59;;;-140.58;75.83
17309;BME280;8772;42.804;23.426;2023-02-10T03:10:25;77208.53;;;-140.58;76.24
17309;BME280;8772;42.804;23.426;2023-02-10T03:12:52;77208.53;;;-140.58;76.42
17309;BME280;8772;42.804;23.426;2023-02-10T03:15:19;77212.66;;;-140.58;76.90
17309;BME280;8772;42.804;23.426;2023-02-10T03:17:46;77224.97;;;-140.58;77.07
17309;BME280;8772;42.804;23.426;2023-02-10T03:20:15;77216.75;;;-140.58;77.84
17309;BME280;8772;42.804;23.426;2023-02-10T03:22:42;77216.75;;;-140.58;77.21
17309;BME280;8772;42.804;23.426;2023-02-10T03:25:10;77216.75;;;-140.58;76.86
17309;BME280;8772;42.804;23.426;2023-02-10T03:27:37;77220.84;;;-140.58;76.71
17309;BME280;8772;42.804;23.426;2023-02-10T03:30:04;77229.06;;;-140.58;76.42
17309;BME280;8772;42.804;23.426;2023-02-10T03:32:31;77263.97;;;-140.58;77.54
17309;BME280;8772;42.804;23.426;2023-02-10T03:34:58;77233.19;;;-140.58;77.44
17309;BME280;8772;42.804;23.426;2023-02-10T03:37:26;77249.59;;;-140.58;76.03
17309;BME280;8772;42.804;23.426;2023-02-10T03:39:53;77237.28;;;-140.58;76.14
17309;BME280;8772;42.804;23.426;2023-02-10T03:42:20;77243.44;;;-140.58;76.17
17309;BME280;8772;42.804;23.426;2023-02-10T03:44:47;77241.38;;;-140.58;76.66
17309;BME280;8772;42.804;23.426;2023-02-10T03:47:15;77247.56;;;-140.58;76.96
17309;BME280;8772;42.804;23.426;2023-02-10T03:49:42;77266.03;;;-140.58;77.82
17309;BME280;8772;42.804;23.426;2023-02-10T03:52:09;77270.13;;;-140.58;78.48
17309;BME280;8772;42.804;23.426;2023-02-10T03:54:37;77272.19;;;-140.58;80.53
17309;BME280;8772;42.804;23.426;2023-02-10T03:57:04;77298.88;;;-140.58;83.17
17309;BME280;8772;42.804;23.426;2023-02-10T03:59:31;77290.69;;;-140.58;85.79
17309;BME280;8772;42.804;23.426;2023-02-10T04:01:58;77290.69;;;-140.58;85.60
17309;BME280;8772;42.804;23.426;2023-02-10T04:04:25;77296.84;;;-140.58;85.41
17309;BME280;8772;42.804;23.426;2023-02-10T04:06:52;77311.22;;;-140.58;85.98
17309;BME280;8772;42.804;23.426;2023-02-10T04:09:18;77307.09;;;-140.58;87.46
17309;BME280;8772;42.804;23.426;2023-02-10T04:11:47;77280.41;;;-140.58;86.75
17309;BME280;8772;42.804;23.426;2023-02-10T04:14:14;77278.34;;;-140.58;86.13
17309;BME280;8772;42.804;23.426;2023-02-10T04:16:40;77266.03;;;-140.58;85.07
17309;BME280;8772;42.804;23.426;2023-02-10T04:19:07;77263.97;;;-140.58;84.63
17309;BME280;8772;42.804;23.426;2023-02-10T04:21:34;77261.94;;;-140.58;84.36
17309;BME280;8772;42.804;23.426;2023-02-10T04:24:01;77245.50;;;-140.58;84.12
17309;BME280;8772;42.804;23.426;2023-02-10T04:26:28;77245.50;;;-140.58;83.84
17309;BME280;8772;42.804;23.426;2023-02-10T04:28:56;77243.44;;;-140.58;83.39
17309;BME280;8772;42.804;23.426;2023-02-10T04:31:23;77241.38;;;-140.58;83.02
17309;BME280;8772;42.804;23.426;2023-02-10T04:33:50;77233.19;;;-140.58;82.42
17309;BME280;8772;42.804;23.426;2023-02-10T04:36:17;77224.97;;;-140.58;82.05
17309;BME280;8772;42.804;23.426;2023-02-10T04:38:44;77245.50;;;-140.58;81.21
17309;BME280;8772;42.804;23.426;2023-02-10T04:41:11;77257.81;;;-140.58;81.02
17309;BME280;8772;42.804;23.426;2023-02-10T04:43:38;77253.72;;;-140.58;81.27
17309;BME280;8772;42.804;23.426;2023-02-10T04:46:06;77255.75;;;-140.58;80.91
17309;BME280;8772;42.804;23.426;2023-02-10T04:48:33;77263.97;;;-140.58;81.71
17309;BME280;8772;42.804;23.426;2023-02-10T04:51:06;77259.88;;;-140.58;81.62
17309;BME280;8772;42.804;23.426;2023-02-10T04:53:33;77261.94;;;-140.58;81.62
17309;BME280;8772;42.804;23.426;2023-02-10T04:56:00;77261.94;;;-140.58;81.62
17309;BME280;8772;42.804;23.426;2023-02-10T04:58:29;77270.13;;;-140.58;81.29
17309;BME280;8772;42.804;23.426;2023-02-10T05:00:56;77274.25;;;-140.58;81.47
17309;BME280;8772;42.804;23.426;2023-02-10T05:03:24;77278.34;;;-140.58;81.78
17309;BME280;8772;42.804;23.426;2023-02-10T05:05:51;77300.94;;;-140.58;82.29
17309;BME280;8772;42.804;23.426;2023-02-10T05:08:18;77288.63;;;-140.58;81.87
17309;BME280;8772;42.804;23.426;2023-02-10T05:10:49;77290.69;;;-140.58;81.83
17309;BME280;8772;42.804;23.426;2023-02-10T05:13:16;77290.69;;;-140.58;81.50
17309;BME280;8772;42.804;23.426;2023-02-10T05:15:44;77294.78;;;-140.58;81.59
17309;BME280;8772;42.804;23.426;2023-02-10T05:18:11;77294.78;;;-140.58;81.59
17309;BME280;8772;42.804;23.426;2023-02-10T05:20:39;77333.78;;;-140.58;81.73
17309;BME280;8772;42.804;23.426;2023-02-10T05:23:06;77368.72;;;-140.58;84.29
17309;BME280;8772;42.804;23.426;2023-02-10T05:25:33;77372.81;;;-140.58;86.11
17309;BME280;8772;42.804;23.426;2023-02-10T05:28:00;77368.72;;;-140.58;86.21
17309;BME280;8772;42.804;23.426;2023-02-10T05:30:26;77356.38;;;-140.58;86.28
17309;BME280;8772;42.804;23.426;2023-02-10T05:32:53;77354.34;;;-140.58;84.60
17309;BME280;8772;42.804;23.426;2023-02-10T05:35:20;77401.56;;;-140.58;84.88
17309;BME280;8772;42.804;23.426;2023-02-10T05:37:48;77401.56;;;-140.58;85.88
17309;BME280;8772;42.804;23.426;2023-02-10T05:40:16;77413.88;;;-140.58;86.25
17309;BME280;8772;42.804;23.426;2023-02-10T05:42:42;77432.38;;;-140.58;89.49
17309;BME280;8772;42.804;23.426;2023-02-10T05:45:09;77426.22;;;-140.58;90.04
17309;BME280;8772;42.804;23.426;2023-02-10T05:47:36;77426.22;;;-140.58;89.95
17309;BME280;8772;42.804;23.426;2023-02-10T05:50:04;77461.13;;;-140.58;97.05
17309;BME280;8772;42.804;23.426;2023-02-10T05:52:30;77438.53;;;-140.58;98.76
17309;BME280;8772;42.804;23.426;2023-02-10T05:54:59;77452.91;;;-140.58;99.07
17309;BME280;8772;42.804;23.426;2023-02-10T05:57:26;77446.75;;;-140.58;99.11
17309;BME280;8772;42.804;23.426;2023-02-10T05:59:53;77426.22;;;-140.58;98.39
17309;BME280;8772;42.804;23.426;2023-02-10T06:02:20;77430.31;;;-140.58;97.93
17309;BME280;8772;42.804;23.426;2023-02-10T06:04:47;77440.59;;;-140.58;97.76
17309;BME280;8772;42.804;23.426;2023-02-10T06:07:14;77426.22;;;-140.58;97.42
17309;BME280;8772;42.804;23.426;2023-02-10T06:09:41;77432.38;;;-140.58;98.05
17309;BME280;8772;42.804;23.426;2023-02-10T06:12:10;77430.31;;;-140.58;98.52
17309;BME280;8772;42.804;23.426;2023-02-10T06:14:37;77413.88;;;-140.58;98.95
17309;BME280;8772;42.804;23.426;2023-02-10T06:17:04;77407.72;;;-140.58;99.02
17309;BME280;8772;42.804;23.426;2023-02-10T06:19:34;77409.78;;;-140.58;99.85
17309;BME280;8772;42.804;23.426;2023-02-10T06:22:01;77387.19;;;-140.58;100.00
17309;BME280;8772;42.804;23.426;2023-02-10T06:24:28;77374.88;;;-140.58;99.75
17309;BME280;8772;42.804;23.426;2023-02-10T06:26:55;77360.50;;;-140.58;99.67
17309;BME280;8772;42.804;23.426;2023-02-10T06:29:24;77344.06;;;-140.58;99.75
17309;BME280;8772;42.804;23.426;2023-02-10T06:31:51;77335.84;;;-140.58;99.48
17309;BME280;8772;42.804;23.426;2023-02-10T06:34:18;77327.63;;;-140.58;98.97
17309;BME280;8772;42.804;23.426;2023-02-10T06:36:45;77311.22;;;-140.58;98.72
17309;BME280;8772;42.804;23.426;2023-02-10T06:39:12;77303.00;;;-140.58;98.46
17309;BME280;8772;42.804;23.426;2023-02-10T06:41:39;77292.72;;;-140.58;97.95
17309;BME280;8772;42.804;23.426;2023-02-10T06:44:06;77286.56;;;-140.58;97.69
17309;BME280;8772;42.804;23.426;2023-02-10T06:46:35;77278.34;;;-140.58;97.63
17309;BME280;8772;42.804;23.426;2023-02-10T06:49:01;77261.94;;;-140.58;96.85
17309;BME280;8772;42.804;23.426;2023-02-10T06:51:28;77253.72;;;-140.58;95.79
17309;BME280;8772;42.804;23.426;2023-02-10T06:53:55;77241.38;;;-140.58;94.33
17309;BME280;8772;42.804;23.426;2023-02-10T06:56:22;77222.91;;;-140.58;92.37
17309;BME280;8772;42.804;23.426;2023-02-10T06:58:49;77212.66;;;-140.58;91.70
17309;BME280;8772;42.804;23.426;2023-02-10T07:01:17;77208.53;;;-140.58;91.04
17309;BME280;8772;42.804;23.426;2023-02-10T07:03:46;77196.22;;;-140.58;89.82
17309;BME280;8772;42.804;23.426;2023-02-10T07:06:12;77185.94;;;-140.58;89.46
17309;BME280;8772;42.804;23.426;2023-02-10T07:08:39;77167.47;;;-140.58;88.79
17309;BME280;8772;42.804;23.426;2023-02-10T07:11:06;77163.34;;;-140.58;88.61
17309;BME280;8772;42.804;23.426;2023-02-10T07:13:33;77151.03;;;-140.58;88.83
17309;BME280;8772;42.804;23.426;2023-02-10T07:16:00;77155.16;;;-140.58;89.01
17309;BME280;8772;42.804;23.426;2023-02-10T07:18:27;77134.59;;;-140.58;89.04
17309;BME280;8772;42.804;23.426;2023-02-10T07:20:56;77134.59;;;-140.58;88.41
17309;BME280;8772;42.804;23.426;2023-02-10T07:23:23;77114.06;;;-140.58;88.00
17309;BME280;8772;42.804;23.426;2023-02-10T07:25:50;77105.88;;;-140.58;87.40
17309;BME280;8772;42.804;23.426;2023-02-10T07:28:17;77099.69;;;-140.58;86.84
17309;BME280;8772;42.804;23.426;2023-02-10T07:30:44;77103.81;;;-140.58;86.63
17309;BME280;8772;42.804;23.426;2023-02-10T07:33:11;77105.88;;;-140.58;86.88
17309;BME280;8772;42.804;23.426;2023-02-10T07:35:37;77101.75;;;-140.58;87.28
17309;BME280;8772;42.804;23.426;2023-02-10T07:38:06;77081.22;;;-140.58;86.51
17309;BME280;8772;42.804;23.426;2023-02-10T07:40:33;77068.91;;;-140.58;86.16
17309;BME280;8772;42.804;23.426;2023-02-10T07:43:00;77060.69;;;-140.58;85.68
17309;BME280;8772;42.804;23.426;2023-02-10T07:45:27;77056.59;;;-140.58;86.24
17309;BME280;8772;42.804;23.426;2023-02-10T07:47:56;77031.94;;;-140.58;85.27
17309;BME280;8772;42.804;23.426;2023-02-10T07:50:23;77038.09;;;-140.58;85.95
17309;BME280;8772;42.804;23.426;2023-02-10T07:52:50;77009.34;;;-140.58;85.21
17309;BME280;8772;42.804;23.426;2023-02-10T07:55:19;76997.03;;;-140.58;84.81
17309;BME280;8772;42.804;23.426;2023-02-10T07:57:46;76994.97;;;-140.58;85.05
17309;BME280;8772;42.804;23.426;2023-02-10T08:00:14;76990.88;;;-140.58;86.12
17309;BME280;8772;42.804;23.426;2023-02-10T08:02:41;76976.50;;;-140.58;87.02
17309;BME280;8772;42.804;23.426;2023-02-10T08:05:08;76953.91;;;-140.58;86.35
17309;BME280;8772;42.804;23.426;2023-02-10T08:07:35;76949.81;;;-140.58;86.51
17309;BME280;8772;42.804;23.426;2023-02-10T08:10:03;76935.44;;;-140.58;87.18
17309;BME280;8772;42.804;23.426;2023-02-10T08:12:31;76919.00;;;-140.58;86.13
17309;BME280;8772;42.804;23.426;2023-02-10T08:14:58;76916.94;;;-140.58;84.65
17309;BME280;8772;42.804;23.426;2023-02-10T08:17:25;76896.41;;;-140.58;84.28
17309;BME280;8772;42.804;23.426;2023-02-10T08:19:53;76884.09;;;-140.58;83.25
17309;BME280;8772;42.804;23.426;2023-02-10T08:22:20;76892.31;;;-140.58;81.55
17309;BME280;8772;42.804;23.426;2023-02-10T08:24:47;76869.72;;;-140.58;81.60
17309;BME280;8772;42.804;23.426;2023-02-10T08:27:13;76836.88;;;-140.58;79.81
17309;BME280;8772;42.804;23.426;2023-02-10T08:29:42;76820.44;;;-140.58;80.61
17309;BME280;8772;42.804;23.426;2023-02-10T08:32:09;76801.97;;;-140.58;77.41
17309;BME280;8772;42.804;23.426;2023-02-10T08:34:38;76793.75;;;-140.58;74.79
17309;BME280;8772;42.804;23.426;2023-02-10T08:37:05;76771.16;;;-140.58;75.58
17309;BME280;8772;42.804;23.426;2023-02-10T08:39:32;76752.69;;;-140.58;73.88
17309;BME280;8772;42.804;23.426;2023-02-10T08:41:59;76744.47;;;-140.58;73.52
17309;BME280;8772;42.804;23.426;2023-02-10T08:44:25;76715.72;;;-140.58;72.02
17309;BME280;8772;42.804;23.426;2023-02-10T08:46:54;76699.31;;;-140.58;69.43
17309;BME280;8772;42.804;23.426;2023-02-10T08:49:21;76676.72;;;-140.58;69.01
17309;BME280;8772;42.804;23.426;2023-02-10T08:51:50;76676.72;;;-140.58;69.08
17309;BME280;8772;42.804;23.426;2023-02-10T08:54:17;76637.72;;;-140.58;68.43
17309;BME280;8772;42.804;23.426;2023-02-10T08:56:44;76621.28;;;-140.58;65.05
17309;BME280;8772;42.804;23.426;2023-02-10T08:59:11;76613.06;;;-140.58;65.06
17309;BME280;8772;42.804;23.426;2023-02-10T09:01:39;76584.34;;;-140.58;64.29
17309;BME280;8772;42.804;23.426;2023-02-10T09:04:07;76563.81;;;-140.58;63.99
17309;BME280;8772;42.804;23.426;2023-02-10T09:06:36;76526.84;;;-140.58;63.35
17309;BME280;8772;42.804;23.426;2023-02-10T09:09:05;76506.31;;;-140.58;60.71
17309;BME280;8772;42.804;23.426;2023-02-10T09:11:32;76483.72;;;-140.58;60.85
17309;BME280;8772;42.804;23.426;2023-02-10T09:13:59;76465.25;;;-140.58;60.58
17309;BME280;8772;42.804;23.426;2023-02-10T09:16:26;76440.63;;;-140.58;57.97
17309;BME280;8772;42.804;23.426;2023-02-10T09:18:53;76415.97;;;-140.58;58.90
17309;BME280;8772;42.804;23.426;2023-02-10T09:21:21;76424.19;;;-140.58;57.16
17309;BME280;8772;42.804;23.426;2023-02-10T09:23:49;76397.50;;;-140.58;57.35
17309;BME280;8772;42.804;23.426;2023-02-10T09:26:16;76387.25;;;-140.58;57.91
17309;BME280;8772;42.804;23.426;2023-02-10T09:28:43;76385.19;;;-140.58;58.11
17309;BME280;8772;42.804;23.426;2023-02-10T09:31:12;76370.81;;;-140.58;57.55
17309;BME280;8772;42.804;23.426;2023-02-10T09:33:40;76329.75;;;-140.58;57.13
17309;BME280;8772;42.804;23.426;2023-02-10T09:36:12;76329.75;;;-140.58;56.07
17309;BME280;8772;42.804;23.426;2023-02-10T09:38:41;76313.34;;;-140.58;55.85
17309;BME280;8772;42.804;23.426;2023-02-10T09:41:14;76309.22;;;-140.58;55.85
17309;BME280;8772;42.804;23.426;2023-02-10T09:43:58;76276.38;;;-140.58;54.15
17309;BME280;8772;42.804;23.426;2023-02-10T09:46:39;76264.06;;;-140.58;54.86
17309;BME280;8772;42.804;23.426;2023-02-10T09:49:22;76247.63;;;-140.58;53.61
17309;BME280;8772;42.804;23.426;2023-02-10T09:52:01;76257.91;;;-140.58;54.27
17309;BME280;8772;42.804;23.426;2023-02-10T09:54:35;76288.69;;;-140.58;53.31
17309;BME280;8772;42.804;23.426;2023-02-10T09:57:04;76266.13;;;-140.58;54.04
17309;BME280;8772;42.804;23.426;2023-02-10T09:59:33;76235.31;;;-140.58;53.75
17309;BME280;8772;42.804;23.426;2023-02-10T10:02:12;76212.75;;;-140.58;54.31
17309;BME280;8772;42.804;23.426;2023-02-10T10:04:43;76216.84;;;-140.58;52.96
17309;BME280;8772;42.804;23.426;2023-02-10T10:07:17;76202.47;;;-140.58;53.13
17309;BME280;8772;42.804;23.426;2023-02-10T10:09:51;76177.84;;;-140.58;53.64
17309;BME280;8772;42.804;23.426;2023-02-10T10:12:21;76167.56;;;-140.58;53.50
17309;BME280;8772;42.804;23.426;2023-02-10T10:14:48;76190.16;;;-140.58;50.40
17309;BME280;8772;42.804;23.426;2023-02-10T10:17:32;76161.41;;;-140.58;52.50
17309;BME280;8772;42.804;23.426;2023-02-10T10:20:14;76173.75;;;-140.58;51.19
17309;BME280;8772;42.804;23.426;2023-02-10T10:22:52;76161.41;;;-140.58;50.58
17309;BME280;8772;42.804;23.426;2023-02-10T10:25:40;76140.88;;;-140.58;50.68
17309;BME280;8772;42.804;23.426;2023-02-10T10:28:19;76140.88;;;-140.58;52.48
17309;BME280;8772;42.804;23.426;2023-02-10T10:30:51;76114.22;;;-140.58;52.08
17309;BME280;8772;42.804;23.426;2023-02-10T10:33:23;76091.63;;;-140.58;51.87
17309;BME280;8772;42.804;23.426;2023-02-10T10:35:51;76073.16;;;-140.58;50.01
17309;BME280;8772;42.804;23.426;2023-02-10T10:38:21;76067.00;;;-140.58;50.23
17309;BME280;8772;42.804;23.426;2023-02-10T10:40:52;76071.09;;;-140.58;50.96
17309;BME280;8772;42.804;23.426;2023-02-10T10:43:23;76046.47;;;-140.58;50.44
17309;BME280;8772;42.804;23.426;2023-02-10T10:45:56;76042.34;;;-140.58;50.30
17309;BME280;8772;42.804;23.426;2023-02-10T10:48:26;76046.47;;;-140.58;50.88
17309;BME280;8772;42.804;23.426;2023-02-10T10:50:55;76050.56;;;-140.58;47.96
17309;BME280;8772;42.804;23.426;2023-02-10T10:53:34;76038.25;;;-140.58;49.20
17309;BME280;8772;42.804;23.426;2023-02-10T10:56:05;76052.63;;;-140.58;48.56
17309;BME280;8772;42.804;23.426;2023-02-10T10:58:36;76064.94;;;-140.58;49.49
17309;BME280;8772;42.804;23.426;2023-02-10T11:01:04;76050.56;;;-140.58;49.12
17309;BME280;8772;42.804;23.426;2023-02-10T11:03:32;76042.34;;;-140.58;48.26
17309;BME280;8772;42.804;23.426;2023-02-10T11:06:03;76062.88;;;-140.58;48.23
17309;BME280;8772;42.804;23.426;2023-02-10T11:08:34;76042.34;;;-140.58;47.48
17309;BME280;8772;42.804;23.426;2023-02-10T11:11:06;76021.81;;;-140.58;48.86
17309;BME280;8772;42.804;23.426;2023-02-10T11:13:37;76017.72;;;-140.58;48.85
17309;BME280;8772;42.804;23.426;2023-02-10T11:16:06;76003.34;;;-140.58;48.96
17309;BME280;8772;42.804;23.426;2023-02-10T11:18:37;75991.03;;;-140.58;48.56
17309;BME280;8772;42.804;23.426;2023-02-10T11:21:06;75993.09;;;-140.58;49.83
17309;BME280;8772;42.804;23.426;2023-02-10T11:23:36;75980.78;;;-140.58;48.66
17309;BME280;8772;42.804;23.426;2023-02-10T11:26:19;75976.66;;;-140.58;48.93
17309;BME280;8772;42.804;23.426;2023-02-10T11:28:47;75970.50;;;-140.58;48.14
17309;BME280;8772;42.804;23.426;2023-02-10T11:31:25;76007.47;;;-140.58;44.46
17309;BME280;8772;42.804;23.426;2023-02-10T11:33:57;75980.78;;;-140.58;47.57
17309;BME280;8772;42.804;23.426;2023-02-10T11:36:35;75980.78;;;-140.58;48.29
17309;BME280;8772;42.804;23.426;2023-02-10T11:39:04;75952.03;;;-140.58;48.03
17309;BME280;8772;42.804;23.426;2023-02-10T11:41:34;75960.25;;;-140.58;46.37
17309;BME280;8772;42.804;23.426;2023-02-10T11:44:01;75939.72;;;-140.58;47.16
17309;BME280;8772;42.804;23.426;2023-02-10T11:46:30;75929.44;;;-140.58;46.97
17309;BME280;8772;42.804;23.426;2023-02-10T11:48:59;75906.88;;;-140.58;45.82
17309;BME280;8772;42.804;23.426;2023-02-10T11:51:26;75902.78;;;-140.58;44.14
17309;BME280;8772;42.804;23.426;2023-02-10T11:53:55;75908.94;;;-140.58;46.08
17309;BME280;8772;42.804;23.426;2023-02-10T11:56:26;75886.34;;;-140.58;46.37
17309;BME280;8772;42.804;23.426;2023-02-10T11:59:22;75882.25;;;-140.58;45.01
17309;BME280;8772;42.804;23.426;2023-02-10T12:01:57;75865.81;;;-140.58;45.58
17309;BME280;8772;42.804;23.426;2023-02-10T12:04:49;75853.50;;;-140.58;45.52
17309;BME280;8772;42.804;23.426;2023-02-10T12:07:27;75814.50;;;-140.58;44.45
17309;BME280;8772;42.804;23.426;2023-02-10T12:10:02;75816.56;;;-140.58;40.90
17309;BME280;8772;42.804;23.426;2023-02-10T12:12:37;75820.66;;;-140.58;42.84
17309;BME280;8772;42.804;23.426;2023-02-10T12:15:20;75796.03;;;-140.58;43.56
17309;BME280;8772;42.804;23.426;2023-02-10T12:17:59;75800.13;;;-140.58;41.51
17309;BME280;8772;42.804;23.426;2023-02-10T12:20:38;75791.94;;;-140.58;42.38
17309;BME280;8772;42.804;23.426;2023-02-10T12:23:28;75775.50;;;-140.58;43.49
17309;BME280;8772;42.804;23.426;2023-02-10T12:26:07;75775.50;;;-140.58;43.09
17309;BME280;8772;42.804;23.426;2023-02-10T12:28:47;75746.78;;;-140.58;42.42
17309;BME280;8772;42.804;23.426;2023-02-10T12:31:26;75718.03;;;-140.58;41.37
17309;BME280;8772;42.804;23.426;2023-02-10T12:37:10;75685.19;;;-140.58;41.42
17309;BME280;8772;42.804;23.426;2023-02-10T12:39:44;75666.72;;;-140.58;39.23
17309;BME280;8772;42.804;23.426;2023-02-10T12:42:26;75662.63;;;-140.58;40.97
17309;BME280;8772;42.804;23.426;2023-02-10T12:45:07;75658.50;;;-140.58;41.54
17309;BME280;8772;42.804;23.426;2023-02-10T12:47:46;75633.88;;;-140.58;41.47
17309;BME280;8772;42.804;23.426;2023-02-10T12:50:39;75623.63;;;-140.58;40.80
17309;BME280;8772;42.804;23.426;2023-02-10T12:53:13;75640.03;;;-140.58;38.79
17309;BME280;8772;42.804;23.426;2023-02-10T12:55:47;75615.41;;;-140.58;40.64
17309;BME280;8772;42.804;23.426;2023-02-10T12:58:20;75588.72;;;-140.58;38.97
17309;BME280;8772;42.804;23.426;2023-02-10T13:00:52;75615.41;;;-140.58;37.23
17309;BME280;8772;42.804;23.426;2023-02-10T13:03:25;75582.56;;;-140.58;39.01